Time;durP1;ratioP1;P1;durP2;ratioP2;P2;SDS_P1;SDS_P2;PMS_P1;PMS_P2;Temp;Humidity;BMP_temperature;BMP_pressure;BME280_temperature;BME280_humidity;BME280_pressure;Samples;Min_cycle;Max_cycle;Signal;HPM_P1;HPM_P2
2024/04/18 00:01:27;;;;;;;;;;;;;;;;;;5418938;26;19967;-55
2024/04/18 00:03:53;;;;;;;;;;;;;;;;;;5427312;26;19925;-57
2024/04/18 00:06:18;;;;;;;;;;;;;;;;;;5417986;26;20487;-57
2024/04/18 00:08:44;;;;;;;;;;;;;;;;;;5431816;26;20438;-55
2024/04/18 00:11:10;;;;;;;;;;;;;;;;;;5423392;26;19932;-55
2024/04/18 00:13:36;;;;;;;;;;;;;;;;;;5432136;26;19924;-55
2024/04/18 00:16:02;;;;;;;;;;;;;;;;;;5434869;26;19925;-55
2024/04/18 00:18:28;;;;;;;;;;;;;;;;;;5430311;26;19932;-55
2024/04/18 00:20:54;;;;;;;;;;;;;;;;;;5433848;26;19967;-56
2024/04/18 00:23:20;;;;;;;;;;;;;;;;;;5433317;26;19932;-55
2024/04/18 00:25:46;;;;;;;;;;;;;;;;;;5411583;26;19932;-55
2024/04/18 00:28:12;;;;;;;;;;;;;;;;;;5419884;26;19932;-55
2024/04/18 00:30:38;;;;;;;;;;;;;;;;;;5417862;26;19974;-55
2024/04/18 00:33:04;;;;;;;;;;;;;;;;;;5426086;26;19989;-55
2024/04/18 00:35:30;;;;;;;;;;;;;;;;;;5419966;26;19940;-55
2024/04/18 00:37:56;;;;;;;;;;;;;;;;;;5434437;26;20014;-55
2024/04/18 00:40:22;;;;;;;;;;;;;;;;;;5423385;26;19925;-56
2024/04/18 00:42:48;;;;;;;;;;;;;;;;;;5437105;26;20383;-55
2024/04/18 00:45:14;;;;;;;;;;;;;;;;;;5446066;26;20318;-55
2024/04/18 00:47:40;;;;;;;;;;;;;;;;;;5425091;26;19932;-55
2024/04/18 00:50:06;;;;;;;;;;;;;;;;;;5429080;26;20303;-55
2024/04/18 00:52:32;;;;;;;;;;;;;;;;;;5425145;26;19994;-55
2024/04/18 00:54:57;;;;;;;;;;;;;;;;;;5419517;26;19935;-56
2024/04/18 00:57:23;;;;;;;;;;;;;;;;;;5431040;26;19935;-55
2024/04/18 00:59:49;;;;;;;;;;;;;;;;;;5415546;26;19925;-55
2024/04/18 01:02:15;;;;;;;;;;;;;;;;;;5439544;26;19928;-55
2024/04/18 01:04:41;;;;;;;;;;;;;;;;;;5441763;26;19932;-55
2024/04/18 01:07:07;;;;;;;;;;;;;;;;;;5436691;26;19932;-55
2024/04/18 01:09:33;;;;;;;;;;;;;;;;;;5442958;26;19924;-55
2024/04/18 01:11:59;;;;;;;;;;;;;;;;;;5422937;26;19932;-54
2024/04/18 01:14:25;;;;;;;;;;;;;;;;;;5415995;26;19932;-53
2024/04/18 01:16:51;;;;;;;;;;;;;;;;;;5424893;26;19924;-53
2024/04/18 01:19:17;;;;;;;;;;;;;;;;;;5415515;26;20717;-53
2024/04/18 01:21:43;;;;;;;;;;;;;;;;;;5421410;26;19936;-53
2024/04/18 01:24:09;;;;;;;;;;;;;;;;;;5422733;26;20144;-55
2024/04/18 01:26:34;;;;;;;;;;;;;;;;;;5421834;26;19924;-55
2024/04/18 01:29:00;;;;;;;;;;;;;;;;;;5436798;26;19936;-55
2024/04/18 01:31:26;;;;;;;;;;;;;;;;;;5428327;26;20018;-55
2024/04/18 01:33:56;;;;;;;;;;;;;;;;;;5430174;26;19925;-54
2024/04/18 01:36:22;;;;;;;;;;;;;;;;;;5428576;26;19924;-54
2024/04/18 01:38:48;;;;;;;;;;;;;;;;;;5434312;26;19953;-54
2024/04/18 01:41:16;;;;;;;;;;;;;;;;;;5416112;26;20338;-54
2024/04/18 01:43:42;;;;;;;;;;;;;;;;;;5430896;26;20352;-54
2024/04/18 01:46:08;;;;;;;;;;;;;;;;;;5441020;26;19932;-54
2024/04/18 01:48:34;;;;;;;;;;;;;;;;;;5427145;26;19925;-54
2024/04/18 01:51:02;;;;;;;;;;;;;;;;;;5416215;26;20292;-54
2024/04/18 01:53:28;;;;;;;;;;;;;;;;;;5440643;26;19925;-54
2024/04/18 01:55:54;;;;;;;;;;;;;;;;;;5423309;26;19924;-55
2024/04/18 01:58:20;;;;;;;;;;;;;;;;;;5443402;26;20017;-54
2024/04/18 02:00:46;;;;;;;;;;;;;;;;;;5440578;26;19998;-55
2024/04/18 02:03:12;;;;;;;;;;;;;;;;;;5432723;26;19940;-57
2024/04/18 02:05:38;;;;;;;;;;;;;;;;;;5421690;26;19985;-55
2024/04/18 02:08:04;;;;;;;;;;;;;;;;;;5448078;26;19924;-55
2024/04/18 02:10:30;;;;;;;;;;;;;;;;;;5436560;26;19932;-55
2024/04/18 02:12:56;;;;;;;;;;;;;;;;;;5420311;26;19925;-55
2024/04/18 02:15:22;;;;;;;;;;;;;;;;;;5416775;26;19933;-56
2024/04/18 02:17:48;;;;;;;;;;;;;;;;;;5445359;26;19944;-55
2024/04/18 02:20:14;;;;;;;;;;;;;;;;;;5432184;26;19925;-55
2024/04/18 02:22:40;;;;;;;;;;;;;;;;;;5443735;26;19993;-55
2024/04/18 02:25:06;;;;;;;;;;;;;;;;;;5427315;26;19932;-53
2024/04/18 02:27:32;;;;;;;;;;;;;;;;;;5436027;26;19925;-54
2024/04/18 02:29:58;;;;;;;;;;;;;;;;;;5426692;26;19925;-53
2024/04/18 02:32:23;;;;;;;;;;;;;;;;;;5432522;26;19924;-53
2024/04/18 02:34:49;;;;;;;;;;;;;;;;;;5448453;26;19924;-53
2024/04/18 02:37:15;;;;;;;;;;;;;;;;;;5436969;26;19931;-53
2024/04/18 02:39:41;;;;;;;;;;;;;;;;;;5413720;26;19929;-53
2024/04/18 02:42:07;;;;;;;;;;;;;;;;;;5430201;26;20263;-53
2024/04/18 02:44:33;;;;;;;;;;;;;;;;;;5415820;26;20851;-55
2024/04/18 02:46:59;;;;;;;;;;;;;;;;;;5432018;26;19994;-55
2024/04/18 02:49:25;;;;;;;;;;;;;;;;;;5431125;26;19932;-55
2024/04/18 02:51:51;;;;;;;;;;;;;;;;;;5419866;26;19925;-55
2024/04/18 02:54:17;;;;;;;;;;;;;;;;;;5442689;26;19929;-55
2024/04/18 02:56:43;;;;;;;;;;;;;;;;;;5416985;26;19925;-55
2024/04/18 02:59:10;;;;;;;;;;;;;;;;;;5440311;26;19931;-55
2024/04/18 03:01:36;;;;;;;;;;;;;;;;;;5436663;26;19960;-55
2024/04/18 03:04:02;;;;;;;;;;;;;;;;;;5426736;26;20264;-55
2024/04/18 03:06:28;;;;;;;;;;;;;;;;;;5431017;26;20453;-55
2024/04/18 03:08:54;;;;;;;;;;;;;;;;;;5445635;26;20257;-55
2024/04/18 03:11:20;;;;;;;;;;;;;;;;;;5438130;26;19925;-55
2024/04/18 03:13:46;;;;;;;;;;;;;;;;;;5418463;26;20455;-55
2024/04/18 03:16:12;;;;;;;;;;;;;;;;;;5423905;26;19931;-55
2024/04/18 03:18:37;;;;;;;;;;;;;;;;;;5438920;26;19932;-56
2024/04/18 03:21:03;;;;;;;;;;;;;;;;;;5441683;26;19936;-55
2024/04/18 03:23:29;;;;;;;;;;;;;;;;;;5443225;26;20368;-55
2024/04/18 03:25:55;;;;;;;;;;;;;;;;;;5412794;26;20368;-55
2024/04/18 03:28:21;;;;;;;;;;;;;;;;;;5438460;26;19932;-55
2024/04/18 03:30:47;;;;;;;;;;;;;;;;;;5445747;26;19924;-55
2024/04/18 03:33:13;;;;;;;;;;;;;;;;;;5427351;26;19932;-55
2024/04/18 03:35:39;;;;;;;;;;;;;;;;;;5416011;26;19989;-55
2024/04/18 03:38:05;;;;;;;;;;;;;;;;;;5439435;26;19931;-55
2024/04/18 03:40:31;;;;;;;;;;;;;;;;;;5424721;26;19924;-55
2024/04/18 03:42:57;;;;;;;;;;;;;;;;;;5436612;26;19932;-55
2024/04/18 03:45:23;;;;;;;;;;;;;;;;;;5444075;26;20260;-55
2024/04/18 03:47:49;;;;;;;;;;;;;;;;;;5422036;26;20351;-55
2024/04/18 03:50:16;;;;;;;;;;;;;;;;;;5428966;26;20457;-56
2024/04/18 03:52:42;;;;;;;;;;;;;;;;;;5432373;26;19932;-55
2024/04/18 03:55:08;;;;;;;;;;;;;;;;;;5415131;26;19936;-54
2024/04/18 03:57:34;;;;;;;;;;;;;;;;;;5428311;26;19935;-53
2024/04/18 04:00:00;;;;;;;;;;;;;;;;;;5443405;26;20348;-53
2024/04/18 04:02:26;;;;;;;;;;;;;;;;;;5445637;26;19924;-53
2024/04/18 04:04:53;;;;;;;;;;;;;;;;;;5431759;26;19925;-53
2024/04/18 04:07:19;;;;;;;;;;;;;;;;;;5427563;26;19947;-53
2024/04/18 04:09:45;;;;;;;;;;;;;;;;;;5421015;26;19933;-53
2024/04/18 04:12:11;;;;;;;;;;;;;;;;;;5425882;26;19925;-53
2024/04/18 04:14:37;;;;;;;;;;;;;;;;;;5425028;26;19932;-54
2024/04/18 04:17:03;;;;;;;;;;;;;;;;;;5426980;26;19924;-53
2024/04/18 04:19:29;;;;;;;;;;;;;;;;;;5434543;26;19924;-54
2024/04/18 04:21:54;;;;;;;;;;;;;;;;;;5440295;26;19924;-53
2024/04/18 04:24:20;;;;;;;;;;;;;;;;;;5437756;26;19932;-52
2024/04/18 04:26:46;;;;;;;;;;;;;;;;;;5432683;26;20364;-53
2024/04/18 04:29:13;;;;;;;;;;;;;;;;;;5427949;26;20228;-55
2024/04/18 04:31:39;;;;;;;;;;;;;;;;;;5418021;26;19925;-53
2024/04/18 04:34:07;;;;;;;;;;;;;;;;;;5446390;26;20367;-53
2024/04/18 04:36:34;;;;;;;;;;;;;;;;;;5424880;26;19952;-53
2024/04/18 04:39:00;;;;;;;;;;;;;;;;;;5432124;26;19932;-53
2024/04/18 04:41:26;;;;;;;;;;;;;;;;;;5428463;26;19925;-53
2024/04/18 04:43:52;;;;;;;;;;;;;;;;;;5438497;26;19925;-53
2024/04/18 04:46:18;;;;;;;;;;;;;;;;;;5428755;26;20363;-54
2024/04/18 04:48:44;;;;;;;;;;;;;;;;;;5440782;26;19925;-55
2024/04/18 04:51:10;;;;;;;;;;;;;;;;;;5431995;26;20371;-53
2024/04/18 04:53:35;;;;;;;;;;;;;;;;;;5430887;26;19944;-52
2024/04/18 04:56:01;;;;;;;;;;;;;;;;;;5425292;26;19925;-54
2024/04/18 04:58:27;;;;;;;;;;;;;;;;;;5422607;26;20372;-53
2024/04/18 05:00:53;;;;;;;;;;;;;;;;;;5418480;26;19987;-52
2024/04/18 05:03:19;;;;;;;;;;;;;;;;;;5423353;26;19943;-53
2024/04/18 05:05:45;;;;;;;;;;;;;;;;;;5436415;26;19932;-55
2024/04/18 05:08:11;;;;;;;;;;;;;;;;;;5446037;26;19924;-55
2024/04/18 05:10:37;;;;;;;;;;;;;;;;;;5429906;26;19925;-55
2024/04/18 05:13:03;;;;;;;;;;;;;;;;;;5442574;26;19924;-55
2024/04/18 05:15:29;;;;;;;;;;;;;;;;;;5435693;26;19937;-56
2024/04/18 05:17:55;;;;;;;;;;;;;;;;;;5431540;26;19925;-55
2024/04/18 05:20:21;;;;;;;;;;;;;;;;;;5424126;26;19935;-56
2024/04/18 05:22:47;;;;;;;;;;;;;;;;;;5424276;26;20345;-56
2024/04/18 05:25:13;;;;;;;;;;;;;;;;;;5423595;26;19924;-55
2024/04/18 05:27:44;;;;;;;;;;;;;;;;;;5423276;26;20352;-55
2024/04/18 05:32:54;;;;;;;;;;;;;;;;;;5442218;26;19930;-57
2024/04/18 05:35:20;;;;;;;;;;;;;;;;;;5433428;26;19925;-57
2024/04/18 05:37:46;;;;;;;;;;;;;;;;;;5418101;26;19932;-57
2024/04/18 05:40:12;;;;;;;;;;;;;;;;;;5428754;26;19925;-57
2024/04/18 05:42:38;;;;;;;;;;;;;;;;;;5468906;26;19924;-57
2024/04/18 05:45:05;;;;;;;;;;;;;;;;;;5448855;26;20360;-57
2024/04/18 05:47:31;;;;;;;;;;;;;;;;;;5439760;26;19925;-57
2024/04/18 05:49:57;;;;;;;;;;;;;;;;;;5450040;26;20244;-57
2024/04/18 05:52:23;;;;;;;;;;;;;;;;;;5447728;26;19932;-57
2024/04/18 05:54:49;;;;;;;;;;;;;;;;;;5427362;26;19929;-56
2024/04/18 05:57:14;;;;;;;;;;;;;;;;;;5429110;26;19924;-56
2024/04/18 05:59:40;;;;;;;;;;;;;;;;;;5434286;26;19924;-55
2024/04/18 06:02:06;;;;;;;;;;;;;;;;;;5449236;26;20260;-55
2024/04/18 06:04:32;;;;;;;;;;;;;;;;;;5438935;26;20380;-56
2024/04/18 06:06:58;;;;;;;;;;;;;;;;;;5421758;26;19931;-55
2024/04/18 06:09:24;;;;;;;;;;;;;;;;;;5430517;26;19925;-54
2024/04/18 06:11:50;;;;;;;;;;;;;;;;;;5424387;26;19931;-55
2024/04/18 06:14:16;;;;;;;;;;;;;;;;;;5450978;26;19924;-55
2024/04/18 06:16:42;;;;;;;;;;;;;;;;;;5449596;26;20360;-55
2024/04/18 06:19:08;;;;;;;;;;;;;;;;;;5440840;26;19931;-55
2024/04/18 06:21:34;;;;;;;;;;;;;;;;;;5438719;26;19932;-55
2024/04/18 06:24:00;;;;;;;;;;;;;;;;;;5441989;26;19924;-54
2024/04/18 06:26:26;;;;;;;;;;;;;;;;;;5448385;26;20326;-55
2024/04/18 06:28:52;;;;;;;;;;;;;;;;;;5425164;26;20357;-54
2024/04/18 06:31:18;;;;;;;;;;;;;;;;;;5429221;26;19924;-55
2024/04/18 06:33:44;;;;;;;;;;;;;;;;;;5416803;26;19924;-55
2024/04/18 06:36:10;;;;;;;;;;;;;;;;;;5415419;26;19977;-55
2024/04/18 06:38:36;;;;;;;;;;;;;;;;;;5442895;26;19943;-55
2024/04/18 06:41:02;;;;;;;;;;;;;;;;;;5420154;26;20733;-55
2024/04/18 06:43:29;;;;;;;;;;;;;;;;;;5427169;26;19937;-55
2024/04/18 06:45:55;;;;;;;;;;;;;;;;;;5413862;26;20351;-55
2024/04/18 06:48:21;;;;;;;;;;;;;;;;;;5417954;26;19939;-56
2024/04/18 06:50:47;;;;;;;;;;;;;;;;;;5441722;26;19924;-55
2024/04/18 06:53:13;;;;;;;;;;;;;;;;;;5431202;26;19924;-56
2024/04/18 06:55:39;;;;;;;;;;;;;;;;;;5418912;26;19924;-55
2024/04/18 06:58:04;;;;;;;;;;;;;;;;;;5435009;26;20359;-54
2024/04/18 07:00:30;;;;;;;;;;;;;;;;;;5432953;26;19925;-55
2024/04/18 07:02:56;;;;;;;;;;;;;;;;;;5435308;26;19970;-57
2024/04/18 07:05:22;;;;;;;;;;;;;;;;;;5424923;26;19944;-56
2024/04/18 07:07:48;;;;;;;;;;;;;;;;;;5420847;26;19936;-57
2024/04/18 07:10:14;;;;;;;;;;;;;;;;;;5432423;26;19935;-56
2024/04/18 07:12:40;;;;;;;;;;;;;;;;;;5439680;26;19932;-56
2024/04/18 07:15:06;;;;;;;;;;;;;;;;;;5427552;26;19944;-56
2024/04/18 07:17:32;;;;;;;;;;;;;;;;;;5435419;26;19948;-56
2024/04/18 07:19:58;;;;;;;;;;;;;;;;;;5428470;26;19931;-56
2024/04/18 07:22:24;;;;;;;;;;;;;;;;;;5425105;26;19928;-56
2024/04/18 07:24:50;;;;;;;;;;;;;;;;;;5416730;26;20292;-58
2024/04/18 07:27:16;;;;;;;;;;;;;;;;;;5428321;26;20497;-58
2024/04/18 07:29:42;;;;;;;;;;;;;;;;;;5424833;26;19932;-58
2024/04/18 07:32:08;;;;;;;;;;;;;;;;;;5445404;26;20356;-58
2024/04/18 07:34:33;;;;;;;;;;;;;;;;;;5447723;26;19987;-58
2024/04/18 07:37:00;;;;;;;;;;;;;;;;;;5435609;26;19924;-59
2024/04/18 07:39:25;;;;;;;;;;;;;;;;;;5429853;26;19931;-59
2024/04/18 07:41:51;;;;;;;;;;;;;;;;;;5419729;26;20271;-59
2024/04/18 07:44:17;;;;;;;;;;;;;;;;;;5425842;26;19939;-59
2024/04/18 07:46:44;;;;;;;;;;;;;;;;;;5444715;26;19998;-59
2024/04/18 07:49:10;;;;;;;;;;;;;;;;;;5440559;26;19925;-59
2024/04/18 07:51:37;;;;;;;;;;;;;;;;;;5417201;26;19925;-59
2024/04/18 07:54:03;;;;;;;;;;;;;;;;;;5438173;26;19933;-58
2024/04/18 07:56:28;;;;;;;;;;;;;;;;;;5431839;26;19993;-58
2024/04/18 07:58:54;;;;;;;;;;;;;;;;;;5421903;26;20322;-59
2024/04/18 08:01:20;;;;;;;;;;;;;;;;;;5419892;26;19934;-59
2024/04/18 08:03:46;;;;;;;;;;;;;;;;;;5413406;26;20018;-59
2024/04/18 08:06:13;;;;;;;;;;;;;;;;;;5426977;26;19932;-59
2024/04/18 08:08:39;;;;;;;;;;;;;;;;;;5429794;26;19924;-59
2024/04/18 08:11:08;;;;;;;;;;;;;;;;;;5433829;26;19925;-59
2024/04/18 08:13:34;;;;;;;;;;;;;;;;;;5441273;26;19925;-60
2024/04/18 08:16:00;;;;;;;;;;;;;;;;;;5447227;26;19924;-54
2024/04/18 08:18:27;;;;;;;;;;;;;;;;;;5446046;26;19966;-56
2024/04/18 08:20:53;;;;;;;;;;;;;;;;;;5435804;26;20296;-55
2024/04/18 08:23:20;;;;;;;;;;;;;;;;;;5435588;26;19932;-55
2024/04/18 08:25:46;;;;;;;;;;;;;;;;;;5419376;26;19943;-54
2024/04/18 08:28:12;;;;;;;;;;;;;;;;;;5428587;26;20564;-55
2024/04/18 08:30:38;;;;;;;;;;;;;;;;;;5445673;26;19924;-56
2024/04/18 08:33:04;;;;;;;;;;;;;;;;;;5444538;26;20260;-54
2024/04/18 08:35:30;;;;;;;;;;;;;;;;;;5430220;26;20402;-54
2024/04/18 08:37:56;;;;;;;;;;;;;;;;;;5416092;26;19931;-55
2024/04/18 08:40:22;;;;;;;;;;;;;;;;;;5440883;26;20364;-57
2024/04/18 08:42:48;;;;;;;;;;;;;;;;;;5422614;26;20373;-55
2024/04/18 08:45:14;;;;;;;;;;;;;;;;;;5420200;26;19925;-54
2024/04/18 08:47:40;;;;;;;;;;;;;;;;;;5439711;26;19946;-56
2024/04/18 08:50:05;;;;;;;;;;;;;;;;;;5416865;26;19925;-55
2024/04/18 08:52:34;;;;;;;;;;;;;;;;;;5421680;26;20311;-55
2024/04/18 08:55:03;;;;;;;;;;;;;;;;;;5427605;26;19925;-59
2024/04/18 08:57:29;;;;;;;;;;;;;;;;;;5425894;26;20042;-60
2024/04/18 08:59:55;;;;;;;;;;;;;;;;;;5447314;26;20214;-59
2024/04/18 09:02:21;;;;;;;;;;;;;;;;;;5445056;26;20303;-59
2024/04/18 09:04:47;;;;;;;;;;;;;;;;;;5431203;26;20367;-59
2024/04/18 09:07:13;;;;;;;;;;;;;;;;;;5443396;26;19971;-59
2024/04/18 09:09:39;;;;;;;;;;;;;;;;;;5425468;26;19925;-59
2024/04/18 09:12:05;;;;;;;;;;;;;;;;;;5436942;26;19924;-59
2024/04/18 09:14:31;;;;;;;;;;;;;;;;;;5443384;26;20314;-59
2024/04/18 09:16:57;;;;;;;;;;;;;;;;;;5427673;26;19931;-59
2024/04/18 09:19:23;;;;;;;;;;;;;;;;;;5440499;26;19933;-59
2024/04/18 09:21:49;;;;;;;;;;;;;;;;;;5420805;26;19931;-59
2024/04/18 09:24:15;;;;;;;;;;;;;;;;;;5415611;26;20774;-59
2024/04/18 09:26:41;;;;;;;;;;;;;;;;;;5416822;26;20319;-58
2024/04/18 09:29:07;;;;;;;;;;;;;;;;;;5446162;26;19986;-58
2024/04/18 09:31:33;;;;;;;;;;;;;;;;;;5417327;26;19925;-58
2024/04/18 09:33:59;;;;;;;;;;;;;;;;;;5444816;26;19924;-58
2024/04/18 09:36:25;;;;;;;;;;;;;;;;;;5426284;26;19925;-57
2024/04/18 09:38:51;;;;;;;;;;;;;;;;;;5442010;26;20002;-58
2024/04/18 09:41:16;;;;;;;;;;;;;;;;;;5426542;26;20313;-58
2024/04/18 09:43:42;;;;;;;;;;;;;;;;;;5416976;26;19933;-57
2024/04/18 09:46:08;;;;;;;;;;;;;;;;;;5431938;26;19954;-57
2024/04/18 09:48:34;;;;;;;;;;;;;;;;;;5429573;26;19929;-57
2024/04/18 09:51:00;;;;;;;;;;;;;;;;;;5423197;26;19932;-57
2024/04/18 09:53:26;;;;;;;;;;;;;;;;;;5424003;26;19932;-57
2024/04/18 09:55:52;;;;;;;;;;;;;;;;;;5430749;26;19933;-57
2024/04/18 09:58:18;;;;;;;;;;;;;;;;;;5429438;26;19940;-57
2024/04/18 10:00:45;;;;;;;;;;;;;;;;;;5424694;26;19931;-57
2024/04/18 10:03:11;;;;;;;;;;;;;;;;;;5424287;26;19925;-57
2024/04/18 10:05:38;;;;;;;;;;;;;;;;;;5428952;26;20405;-56
2024/04/18 10:08:04;;;;;;;;;;;;;;;;;;5425613;26;19932;-56
2024/04/18 10:10:30;;;;;;;;;;;;;;;;;;5435031;26;19925;-56
2024/04/18 10:12:56;;;;;;;;;;;;;;;;;;5433472;26;20550;-57
2024/04/18 10:15:23;;;;;;;;;;;;;;;;;;5424224;26;20001;-57
2024/04/18 10:17:49;;;;;;;;;;;;;;;;;;5447506;26;19924;-57
2024/04/18 10:20:15;;;;;;;;;;;;;;;;;;5449139;26;19935;-57
2024/04/18 10:22:41;;;;;;;;;;;;;;;;;;5449008;26;19931;-57
2024/04/18 10:25:07;;;;;;;;;;;;;;;;;;5444258;26;19931;-57
2024/04/18 10:27:33;;;;;;;;;;;;;;;;;;5448715;26;19931;-57
2024/04/18 10:29:59;;;;;;;;;;;;;;;;;;5446352;26;20030;-57
2024/04/18 10:32:25;;;;;;;;;;;;;;;;;;5432379;26;19925;-57
2024/04/18 10:34:51;;;;;;;;;;;;;;;;;;5430495;26;19933;-57
2024/04/18 10:37:17;;;;;;;;;;;;;;;;;;5419656;26;20845;-53
2024/04/18 10:39:44;;;;;;;;;;;;;;;;;;5444385;26;19931;-55
2024/04/18 10:42:10;;;;;;;;;;;;;;;;;;5432080;26;20156;-54
2024/04/18 10:44:36;;;;;;;;;;;;;;;;;;5419801;26;19948;-54
2024/04/18 10:47:02;;;;;;;;;;;;;;;;;;5429241;26;20290;-55
2024/04/18 10:49:28;;;;;;;;;;;;;;;;;;5445337;26;19924;-56
2024/04/18 10:51:54;;;;;;;;;;;;;;;;;;5420962;26;20313;-54
2024/04/18 10:54:20;;;;;;;;;;;;;;;;;;5439129;26;20368;-56
2024/04/18 10:56:46;;;;;;;;;;;;;;;;;;5418596;26;19993;-55
2024/04/18 10:59:12;;;;;;;;;;;;;;;;;;5449375;26;19936;-55
2024/04/18 11:01:38;;;;;;;;;;;;;;;;;;5427468;26;19932;-55
2024/04/18 11:04:04;;;;;;;;;;;;;;;;;;5443983;26;19941;-55
2024/04/18 11:06:30;;;;;;;;;;;;;;;;;;5424892;26;19932;-57
2024/04/18 11:08:56;;;;;;;;;;;;;;;;;;5441817;26;19936;-57
2024/04/18 11:11:27;;;;;;;;;;;;;;;;;;5421881;26;19932;-57
2024/04/18 11:13:53;;;;;;;;;;;;;;;;;;5418729;26;19932;-57
2024/04/18 11:16:19;;;;;;;;;;;;;;;;;;5424254;26;19940;-57
2024/04/18 11:18:45;;;;;;;;;;;;;;;;;;5439023;26;19925;-57
2024/04/18 11:21:11;;;;;;;;;;;;;;;;;;5426786;26;19944;-56
2024/04/18 11:23:37;;;;;;;;;;;;;;;;;;5432300;26;19997;-56
2024/04/18 11:26:03;;;;;;;;;;;;;;;;;;5434592;26;19931;-57
2024/04/18 11:28:29;;;;;;;;;;;;;;;;;;5434869;26;19967;-57
2024/04/18 11:30:55;;;;;;;;;;;;;;;;;;5445724;26;19932;-57
2024/04/18 11:33:21;;;;;;;;;;;;;;;;;;5433316;26;19932;-56
2024/04/18 11:35:47;;;;;;;;;;;;;;;;;;5437254;26;19970;-57
2024/04/18 11:38:13;;;;;;;;;;;;;;;;;;5426152;26;19925;-57
2024/04/18 11:40:39;;;;;;;;;;;;;;;;;;5430511;26;19937;-57
2024/04/18 11:43:05;;;;;;;;;;;;;;;;;;5426826;26;19924;-56
2024/04/18 11:45:31;;;;;;;;;;;;;;;;;;5421019;26;19931;-56
2024/04/18 11:47:57;;;;;;;;;;;;;;;;;;5436217;26;19925;-56
2024/04/18 11:50:25;;;;;;;;;;;;;;;;;;5420448;26;20356;-56
2024/04/18 11:52:51;;;;;;;;;;;;;;;;;;5427969;26;20471;-56
2024/04/18 11:55:17;;;;;;;;;;;;;;;;;;5429232;26;19941;-56
2024/04/18 11:57:43;;;;;;;;;;;;;;;;;;5438131;26;19925;-57
2024/04/18 12:00:09;;;;;;;;;;;;;;;;;;5421254;26;19970;-56
2024/04/18 12:02:35;;;;;;;;;;;;;;;;;;5416935;26;20345;-57
2024/04/18 12:05:01;;;;;;;;;;;;;;;;;;5427770;26;19936;-57
2024/04/18 12:07:27;;;;;;;;;;;;;;;;;;5422734;26;19931;-54
2024/04/18 12:09:54;;;;;;;;;;;;;;;;;;5443924;26;20323;-54
2024/04/18 12:12:20;;;;;;;;;;;;;;;;;;5421215;26;19925;-54
2024/04/18 12:14:47;;;;;;;;;;;;;;;;;;5429970;26;20260;-55
2024/04/18 12:17:12;;;;;;;;;;;;;;;;;;5421865;26;19936;-55
2024/04/18 12:19:38;;;;;;;;;;;;;;;;;;5436300;26;19924;-55
2024/04/18 12:22:10;;;;;;;;;;;;;;;;;;5420155;26;21686;-54
2024/04/18 12:24:36;;;;;;;;;;;;;;;;;;5447146;26;20312;-55
2024/04/18 12:27:01;;;;;;;;;;;;;;;;;;5445730;26;19924;-55
2024/04/18 12:29:27;;;;;;;;;;;;;;;;;;5447758;26;19924;-54
2024/04/18 12:31:54;;;;;;;;;;;;;;;;;;5443234;26;19935;-55
2024/04/18 12:34:20;;;;;;;;;;;;;;;;;;5434255;26;19952;-55
2024/04/18 12:36:47;;;;;;;;;;;;;;;;;;5436448;26;19932;-54
2024/04/18 12:39:15;;;;;;;;;;;;;;;;;;5423504;26;19986;-55
2024/04/18 12:41:41;;;;;;;;;;;;;;;;;;5412931;26;20387;-54
2024/04/18 12:44:07;;;;;;;;;;;;;;;;;;5436237;26;20272;-54
2024/04/18 12:46:33;;;;;;;;;;;;;;;;;;5426757;26;19932;-54
2024/04/18 12:48:59;;;;;;;;;;;;;;;;;;5444394;26;19932;-55
2024/04/18 12:51:25;;;;;;;;;;;;;;;;;;5417811;26;19937;-55
2024/04/18 12:53:51;;;;;;;;;;;;;;;;;;5447391;26;20260;-55
2024/04/18 12:56:18;;;;;;;;;;;;;;;;;;5419926;26;19924;-56
2024/04/18 12:58:44;;;;;;;;;;;;;;;;;;5430398;26;19928;-55
2024/04/18 13:01:10;;;;;;;;;;;;;;;;;;5414479;26;19933;-56
2024/04/18 13:03:36;;;;;;;;;;;;;;;;;;5437752;26;20076;-56
2024/04/18 13:06:02;;;;;;;;;;;;;;;;;;5439522;26;19924;-56
2024/04/18 13:08:27;;;;;;;;;;;;;;;;;;5432566;26;19933;-56
2024/04/18 13:10:53;;;;;;;;;;;;;;;;;;5420694;26;19993;-56
2024/04/18 13:13:19;;;;;;;;;;;;;;;;;;5443550;26;20303;-56
2024/04/18 13:15:45;;;;;;;;;;;;;;;;;;5424482;26;19937;-55
2024/04/18 13:18:11;;;;;;;;;;;;;;;;;;5444652;26;19944;-56
2024/04/18 13:20:38;;;;;;;;;;;;;;;;;;5433712;26;19944;-56
2024/04/18 13:23:03;;;;;;;;;;;;;;;;;;5426546;26;19925;-56
2024/04/18 13:25:29;;;;;;;;;;;;;;;;;;5418373;26;19932;-56
2024/04/18 13:27:55;;;;;;;;;;;;;;;;;;5416976;26;19936;-57
2024/04/18 13:30:21;;;;;;;;;;;;;;;;;;5412778;26;20302;-57
2024/04/18 13:32:47;;;;;;;;;;;;;;;;;;5419611;26;20372;-56
2024/04/18 13:35:13;;;;;;;;;;;;;;;;;;5415233;26;19932;-56
2024/04/18 13:37:39;;;;;;;;;;;;;;;;;;5419099;26;19955;-56
2024/04/18 13:40:05;;;;;;;;;;;;;;;;;;5416546;26;19931;-56
2024/04/18 13:42:31;;;;;;;;;;;;;;;;;;5427411;26;19932;-56
2024/04/18 13:44:57;;;;;;;;;;;;;;;;;;5425957;26;19944;-56
2024/04/18 13:47:23;;;;;;;;;;;;;;;;;;5418733;26;20319;-56
2024/04/18 13:49:49;;;;;;;;;;;;;;;;;;5418271;26;19939;-56
2024/04/18 13:52:15;;;;;;;;;;;;;;;;;;5421513;26;19941;-56
2024/04/18 13:54:41;;;;;;;;;;;;;;;;;;5419945;26;19924;-56
2024/04/18 13:57:07;;;;;;;;;;;;;;;;;;5423331;26;19924;-56
2024/04/18 13:59:33;;;;;;;;;;;;;;;;;;5421416;26;20472;-56
2024/04/18 14:02:02;;;;;;;;;;;;;;;;;;5424853;26;19925;-57
2024/04/18 14:04:28;;;;;;;;;;;;;;;;;;5423286;26;19925;-57
2024/04/18 14:06:54;;;;;;;;;;;;;;;;;;5419745;26;19925;-56
2024/04/18 14:09:26;;;;;;;;;;;;;;;;;;5427796;26;19933;-60
2024/04/18 14:11:52;;;;;;;;;;;;;;;;;;5422266;26;19931;-60
2024/04/18 14:14:18;;;;;;;;;;;;;;;;;;5424427;26;19925;-60
2024/04/18 14:19:28;;;;;;;;;;;;;;;;;;5429513;26;19991;-60
2024/04/18 14:21:54;;;;;;;;;;;;;;;;;;5423583;26;20264;-60
2024/04/18 14:24:20;;;;;;;;;;;;;;;;;;5426717;26;19936;-60
2024/04/18 14:26:46;;;;;;;;;;;;;;;;;;5426455;26;19933;-60
2024/04/18 14:29:12;;;;;;;;;;;;;;;;;;5424357;26;19932;-61
2024/04/18 14:31:38;;;;;;;;;;;;;;;;;;5425332;26;19940;-60
2024/04/18 14:34:04;;;;;;;;;;;;;;;;;;5427540;26;19933;-61
2024/04/18 14:36:30;;;;;;;;;;;;;;;;;;5429555;26;19935;-61
2024/04/18 14:38:56;;;;;;;;;;;;;;;;;;5441045;26;20249;-61
2024/04/18 14:41:22;;;;;;;;;;;;;;;;;;5423037;26;19924;-60
2024/04/18 14:43:48;;;;;;;;;;;;;;;;;;5426550;26;19924;-61
2024/04/18 14:46:14;;;;;;;;;;;;;;;;;;5424780;26;19924;-61
2024/04/18 14:48:40;;;;;;;;;;;;;;;;;;5427564;26;19939;-61
2024/04/18 14:51:06;;;;;;;;;;;;;;;;;;5430668;26;19932;-61
2024/04/18 14:53:32;;;;;;;;;;;;;;;;;;5426501;26;19932;-61
2024/04/18 14:55:58;;;;;;;;;;;;;;;;;;5418370;26;19925;-61
2024/04/18 14:58:24;;;;;;;;;;;;;;;;;;5417775;26;19925;-60
2024/04/18 15:00:50;;;;;;;;;;;;;;;;;;5431688;26;19932;-60
2024/04/18 15:03:16;;;;;;;;;;;;;;;;;;5430026;26;19993;-61
2024/04/18 15:05:42;;;;;;;;;;;;;;;;;;5444177;26;19937;-60
2024/04/18 15:08:08;;;;;;;;;;;;;;;;;;5427190;26;20354;-57
2024/04/18 15:10:34;;;;;;;;;;;;;;;;;;5427191;26;20751;-57
2024/04/18 15:13:00;;;;;;;;;;;;;;;;;;5430161;26;19931;-58
2024/04/18 15:15:26;;;;;;;;;;;;;;;;;;5432601;26;19933;-57
2024/04/18 15:17:52;;;;;;;;;;;;;;;;;;5424382;26;19969;-57
2024/04/18 15:20:18;;;;;;;;;;;;;;;;;;5437571;26;20290;-57
2024/04/18 15:22:44;;;;;;;;;;;;;;;;;;5418095;26;21545;-57
2024/04/18 15:25:10;;;;;;;;;;;;;;;;;;5425526;26;20013;-57
2024/04/18 15:27:36;;;;;;;;;;;;;;;;;;5428963;26;19925;-58
2024/04/18 15:30:02;;;;;;;;;;;;;;;;;;5425488;26;19997;-57
2024/04/18 15:32:28;;;;;;;;;;;;;;;;;;5426101;26;19932;-57
2024/04/18 15:34:54;;;;;;;;;;;;;;;;;;5427723;26;20436;-60
2024/04/18 15:37:20;;;;;;;;;;;;;;;;;;5420500;26;20372;-61
2024/04/18 15:39:46;;;;;;;;;;;;;;;;;;5429275;26;19957;-61
2024/04/18 15:42:12;;;;;;;;;;;;;;;;;;5431050;26;19933;-62
2024/04/18 15:44:38;;;;;;;;;;;;;;;;;;5430541;26;20315;-61
2024/04/18 15:47:04;;;;;;;;;;;;;;;;;;5427878;26;19956;-61
2024/04/18 15:49:30;;;;;;;;;;;;;;;;;;5430669;26;19955;-61
2024/04/18 15:51:56;;;;;;;;;;;;;;;;;;5421087;26;19925;-60
2024/04/18 15:54:22;;;;;;;;;;;;;;;;;;5438226;26;20352;-59
2024/04/18 15:56:48;;;;;;;;;;;;;;;;;;5421872;26;19939;-59
2024/04/18 15:59:14;;;;;;;;;;;;;;;;;;5423557;26;20360;-59
2024/04/18 16:01:40;;;;;;;;;;;;;;;;;;5425689;26;19932;-61
2024/04/18 16:04:06;;;;;;;;;;;;;;;;;;5419923;26;20355;-59
2024/04/18 16:06:32;;;;;;;;;;;;;;;;;;5421703;26;19924;-59
2024/04/18 16:08:58;;;;;;;;;;;;;;;;;;5417255;26;19973;-60
2024/04/18 16:11:23;;;;;;;;;;;;;;;;;;5421849;26;19931;-61
2024/04/18 16:13:50;;;;;;;;;;;;;;;;;;5420385;26;20632;-59
2024/04/18 16:16:15;;;;;;;;;;;;;;;;;;5420202;26;20369;-60
2024/04/18 16:18:41;;;;;;;;;;;;;;;;;;5426099;26;19924;-61
2024/04/18 16:21:07;;;;;;;;;;;;;;;;;;5425307;26;19974;-62
2024/04/18 16:23:33;;;;;;;;;;;;;;;;;;5438450;26;19993;-62
2024/04/18 16:25:59;;;;;;;;;;;;;;;;;;5425422;26;19965;-61
2024/04/18 16:28:25;;;;;;;;;;;;;;;;;;5431152;26;20384;-61
2024/04/18 16:30:51;;;;;;;;;;;;;;;;;;5426866;26;19995;-62
2024/04/18 16:33:17;;;;;;;;;;;;;;;;;;5434275;26;19931;-61
2024/04/18 16:35:43;;;;;;;;;;;;;;;;;;5432780;26;19932;-61
2024/04/18 16:38:09;;;;;;;;;;;;;;;;;;5427156;26;20031;-62
2024/04/18 16:40:35;;;;;;;;;;;;;;;;;;5422214;26;20892;-61
2024/04/18 16:43:05;;;;;;;;;;;;;;;;;;5438330;26;20349;-61